Terminal Aerodrome Forecast
Issued by NWS Dodge City, KS

Home | Current Version | Previous Version | Graphics & Text | Print | Product List | Glossary Off
Versions: 1 2 3 4 5 6 7 8 9 10 11 12 13 14 15 16 17 18 19 20 21 22 23 24 25 26 27 28 29 30 31 32 33 34 35 36 37 38 39 40 41 42 43 44 45 46 47 48 49 50

000
FTUS43 KDDC 231212 AAA
TAFDDC
TAF AMD
KDDC 231212Z 2312/2412 36016KT P6SM BKN030
     FM231400 02022G32KT P6SM SKC
     FM232000 02010G20KT P6SM SCT070
     FM240000 02008KT P6SM SKC
     FM240600 29005KT P6SM SKC=

USA.gov is the U.S. government's official web portal to all federal, state and local government web resources and services.